createdAt,value
2023-05-15T00:01:36.836Z,173.01
2023-05-15T00:03:34.858Z,173.01
2023-05-15T00:05:34.499Z,0.16
2023-05-15T00:07:34.183Z,0.16
2023-05-15T00:09:33.528Z,0.16
2023-05-15T00:11:48.025Z,173.01
2023-05-15T00:13:33.669Z,173.01
2023-05-15T00:15:34.900Z,173.01
2023-05-15T00:17:34.172Z,0.16
2023-05-15T00:19:33.859Z,173.01
2023-05-15T00:21:33.948Z,173.01
2023-05-15T00:23:33.858Z,0.16
2023-05-15T00:25:35.063Z,0.17
2023-05-15T00:27:33.693Z,0.17
2023-05-15T00:29:33.266Z,173.01
2023-05-15T00:31:34.330Z,0.16
2023-05-15T00:33:33.756Z,0.16
2023-05-15T00:35:34.478Z,173.01
2023-05-15T00:37:33.330Z,0.16
2023-05-15T00:39:33.887Z,0.16
2023-05-15T00:41:33.962Z,0.16
2023-05-15T00:43:34.382Z,0.16
2023-05-15T00:45:34.717Z,0.16
2023-05-15T00:47:34.233Z,173.01
2023-05-15T00:49:34.301Z,0.16
2023-05-15T00:51:34.232Z,0.16
2023-05-15T00:53:33.930Z,0.16
2023-05-15T00:55:34.823Z,173.01
2023-05-15T00:57:33.431Z,173.01
2023-05-15T00:59:34.263Z,0.16
2023-05-15T01:01:43.280Z,168.54
2023-05-15T01:03:35.006Z,168.54
2023-05-15T01:05:34.750Z,0.16
2023-05-15T01:07:33.494Z,0.16
2023-05-15T01:09:34.177Z,0.16
2023-05-15T01:11:34.058Z,168.54
2023-05-15T01:13:34.273Z,168.54
2023-05-15T01:15:34.404Z,168.54
2023-05-15T01:17:33.635Z,168.54
2023-05-15T01:19:35.864Z,0.16
2023-05-15T01:21:34.121Z,0.16
2023-05-15T01:23:33.455Z,0.16
2023-05-15T01:25:34.761Z,168.54
2023-05-15T01:27:33.380Z,168.54
2023-05-15T01:29:34.302Z,168.54
2023-05-15T01:31:33.981Z,168.54
2023-05-15T01:33:34.181Z,168.54
2023-05-15T01:35:34.095Z,168.54
2023-05-15T01:37:33.645Z,0.16
2023-05-15T01:39:34.258Z,0.16
2023-05-15T01:41:34.203Z,0.16
2023-05-15T01:43:33.458Z,0.16
2023-05-15T01:45:34.227Z,0.16
2023-05-15T01:47:34.111Z,164.15
2023-05-15T01:49:34.235Z,0.16
2023-05-15T01:51:34.141Z,0.16
2023-05-15T01:53:33.364Z,164.15
2023-05-15T01:55:33.885Z,0.16
2023-05-15T01:57:33.477Z,0.16
2023-05-15T01:59:33.965Z,164.15
2023-05-15T02:01:37.838Z,0.16
2023-05-15T02:03:35.014Z,0.16
2023-05-15T02:05:34.296Z,0.16
2023-05-15T02:07:33.472Z,0.16
2023-05-15T02:09:33.473Z,0.16
2023-05-15T02:11:34.179Z,0.15
2023-05-15T02:13:33.530Z,0.15
2023-05-15T02:15:34.864Z,0.15
2023-05-15T02:17:34.498Z,159.84
2023-05-15T02:19:33.921Z,0.15
2023-05-15T02:21:34.044Z,0.15
2023-05-15T02:23:33.554Z,0.15
2023-05-15T02:25:33.364Z,0.15
2023-05-15T02:27:33.912Z,0.15
2023-05-15T02:29:33.680Z,0.15
2023-05-15T02:31:36.065Z,0.15
2023-05-15T02:33:34.413Z,0.15
2023-05-15T02:35:33.486Z,0.15
2023-05-15T02:37:33.868Z,0.15
2023-05-15T02:39:33.306Z,0.15
2023-05-15T02:41:34.238Z,159.84
2023-05-15T02:43:33.587Z,0.15
2023-05-15T02:45:35.141Z,0.15
2023-05-15T02:47:34.616Z,0.15
2023-05-15T02:49:34.356Z,0.15
2023-05-15T02:51:33.983Z,0.15
2023-05-15T02:53:33.791Z,0.15
2023-05-15T02:55:34.103Z,0.15
2023-05-15T02:57:33.658Z,0.15
2023-05-15T02:59:34.038Z,155.61
2023-05-15T03:01:37.774Z,0.15
2023-05-15T03:03:34.311Z,0.15
2023-05-15T03:05:35.103Z,0.15
2023-05-15T03:07:33.638Z,0.15
2023-05-15T03:09:33.841Z,0.15
2023-05-15T03:11:33.939Z,0.15
2023-05-15T03:13:33.417Z,0.15
2023-05-15T03:15:34.377Z,0.15
2023-05-15T03:17:33.649Z,0.15
2023-05-15T03:19:36.583Z,155.61
2023-05-15T03:21:33.572Z,155.61
2023-05-15T03:23:35.724Z,139.44
2023-05-15T03:25:36.208Z,0.13
2023-05-15T03:27:33.420Z,0.13
2023-05-15T03:29:33.779Z,139.44
2023-05-15T03:31:34.074Z,0.13
2023-05-15T03:33:34.691Z,0.13
2023-05-15T03:35:34.204Z,0.11
2023-05-15T03:37:33.289Z,0.12
2023-05-15T03:39:33.850Z,0.12
2023-05-15T03:41:36.910Z,128.1
2023-05-15T03:43:34.085Z,0.12
2023-05-15T03:45:33.647Z,0.12
2023-05-15T03:47:34.997Z,131.81
2023-05-15T03:49:33.868Z,0.12
2023-05-15T03:51:34.451Z,0.12
2023-05-15T03:53:33.960Z,139.44
2023-05-15T03:55:34.303Z,0.13
2023-05-15T03:57:33.945Z,0.13
2023-05-15T03:59:33.528Z,0.14
2023-05-15T04:01:55.345Z,0.14
2023-05-15T04:03:38.638Z,0.14
2023-05-15T04:05:34.336Z,151.46
2023-05-15T04:07:33.991Z,0.14
2023-05-15T04:09:33.728Z,0.14
2023-05-15T04:11:34.977Z,0.15
2023-05-15T04:13:34.043Z,155.61
2023-05-15T04:15:33.967Z,155.61
2023-05-15T04:17:34.505Z,159.84
2023-05-15T04:19:34.276Z,147.38
2023-05-15T04:21:33.555Z,147.38
2023-05-15T04:23:33.992Z,0.14
2023-05-15T04:25:33.910Z,147.38
2023-05-15T04:27:34.578Z,147.38
2023-05-15T04:29:49.176Z,151.46
2023-05-15T04:31:33.674Z,151.46
2023-05-15T04:33:34.254Z,151.46
2023-05-15T04:35:33.693Z,155.61
2023-05-15T04:37:34.147Z,0.15
2023-05-15T04:39:33.621Z,0.15
2023-05-15T04:41:33.579Z,0.14
2023-05-15T04:43:36.408Z,0.14
2023-05-15T04:45:33.504Z,0.14
2023-05-15T04:47:34.775Z,0.15
2023-05-15T04:49:34.191Z,155.61
2023-05-15T04:51:33.841Z,155.61
2023-05-15T04:53:33.968Z,159.84
2023-05-15T04:55:33.911Z,159.84
2023-05-15T04:57:34.117Z,159.84
2023-05-15T04:59:33.915Z,159.84
2023-05-15T05:01:36.221Z,159.84
2023-05-15T05:03:34.941Z,159.84
2023-05-15T05:05:34.050Z,159.84
2023-05-15T05:07:34.644Z,159.84
2023-05-15T05:09:33.866Z,159.84
2023-05-15T05:11:33.654Z,159.84
2023-05-15T05:13:36.584Z,159.84
2023-05-15T05:15:34.040Z,159.84
2023-05-15T05:17:34.950Z,159.84
2023-05-15T05:19:34.330Z,0.16
2023-05-15T05:21:35.026Z,0.16
2023-05-15T05:23:34.219Z,0.16
2023-05-15T05:25:33.612Z,0.16
2023-05-15T05:27:36.556Z,173.01
2023-05-15T05:29:33.209Z,173.01
2023-05-15T05:31:34.279Z,177.56
2023-05-15T05:33:34.178Z,177.56
2023-05-15T05:35:34.681Z,177.56
2023-05-15T05:37:33.773Z,0.17
2023-05-15T05:39:33.901Z,0.17
2023-05-15T05:41:33.885Z,0.17
2023-05-15T05:43:34.180Z,177.56
2023-05-15T05:45:33.950Z,177.56
2023-05-15T05:47:34.230Z,177.56
2023-05-15T05:49:34.379Z,0.17
2023-05-15T05:51:33.871Z,0.17
2023-05-15T05:53:34.150Z,0.17
2023-05-15T05:55:34.303Z,182.2
2023-05-15T05:57:33.956Z,182.2
2023-05-15T05:59:46.426Z,182.2
2023-05-15T06:01:37.341Z,0.17
2023-05-15T06:03:34.954Z,0.17
2023-05-15T06:05:37.118Z,0.17
2023-05-15T06:07:33.677Z,0.17
2023-05-15T06:09:33.491Z,182.2
2023-05-15T06:11:37.117Z,182.2
2023-05-15T06:13:33.835Z,182.2
2023-05-15T06:15:34.254Z,0.17
2023-05-15T06:17:34.049Z,0.17
2023-05-15T06:19:34.804Z,0.17
2023-05-15T06:21:34.297Z,0.17
2023-05-15T06:23:36.010Z,0.17
2023-05-15T06:25:34.337Z,177.56
2023-05-15T06:27:33.507Z,177.56
2023-05-15T06:29:34.320Z,177.56
2023-05-15T06:31:35.250Z,186.91
2023-05-15T06:33:33.821Z,186.91
2023-05-15T06:35:33.995Z,186.91
2023-05-15T06:37:33.467Z,186.91
2023-05-15T06:39:34.008Z,0.18
2023-05-15T06:41:34.904Z,0.18
2023-05-15T06:43:35.017Z,0.18
2023-05-15T06:45:35.067Z,0.18
2023-05-15T06:47:34.336Z,0.18
2023-05-15T06:49:34.096Z,191.71
2023-05-15T06:51:34.312Z,191.71
2023-05-15T06:53:36.687Z,191.71
2023-05-15T06:55:34.124Z,0.17
2023-05-15T06:57:33.328Z,182.2
2023-05-15T06:59:33.979Z,182.2
2023-05-15T07:01:36.964Z,168.54
2023-05-15T07:03:34.854Z,168.54
2023-05-15T07:05:34.155Z,168.54
2023-05-15T07:07:34.101Z,0.17
2023-05-15T07:09:33.830Z,182.2
2023-05-15T07:11:35.019Z,182.2
2023-05-15T07:13:33.696Z,182.2
2023-05-15T07:15:33.982Z,0.18
2023-05-15T07:17:34.218Z,0.18
2023-05-15T07:19:35.644Z,0.15
2023-05-15T07:21:38.548Z,0.15
2023-05-15T07:23:49.562Z,0.15
2023-05-15T07:25:40.829Z,0.12
2023-05-15T07:29:35.710Z,0.12
2023-05-15T07:31:37.482Z,110.61
2023-05-15T07:33:33.924Z,110.61
2023-05-15T07:35:34.752Z,110.61
2023-05-15T07:37:33.984Z,110.61
2023-05-15T07:39:34.196Z,110.61
2023-05-15T07:41:34.261Z,110.61
2023-05-15T07:43:33.540Z,104.09
2023-05-15T07:45:36.612Z,0.1
2023-05-15T07:47:34.144Z,0.1
2023-05-15T07:49:34.211Z,100.93
2023-05-15T07:51:34.204Z,100.93
2023-05-15T07:53:33.879Z,100.93
2023-05-15T07:55:33.381Z,0.11
2023-05-15T07:57:33.858Z,117.4
2023-05-15T07:59:33.642Z,117.4
2023-05-15T08:01:37.694Z,0.11
2023-05-15T08:03:35.167Z,0.11
2023-05-15T08:05:34.498Z,0.11
2023-05-15T08:07:34.251Z,124.46
2023-05-15T08:09:33.853Z,0.12
2023-05-15T08:11:34.467Z,0.12
2023-05-15T08:13:33.864Z,139.44
2023-05-15T08:15:34.959Z,135.59
2023-05-15T08:17:34.357Z,135.59
2023-05-15T08:19:34.363Z,131.81
2023-05-15T08:21:33.680Z,0.13
2023-05-15T08:23:35.349Z,0.13
2023-05-15T08:25:33.765Z,110.61
2023-05-15T08:27:34.064Z,0.11
2023-05-15T08:29:33.640Z,0.11
2023-05-15T08:31:33.861Z,0.1
2023-05-15T08:33:34.675Z,0.1
2023-05-15T08:35:33.709Z,0.1
2023-05-15T08:37:35.722Z,0.1
2023-05-15T08:39:33.899Z,100.93
2023-05-15T08:42:03.736Z,100.93
2023-05-15T08:43:33.949Z,97.83
2023-05-15T08:45:33.421Z,0.09
2023-05-15T08:47:34.628Z,0.09
2023-05-15T08:49:34.609Z,0.09
2023-05-15T08:51:33.549Z,94.8
2023-05-15T08:53:33.990Z,94.8
2023-05-15T08:55:34.887Z,0.09
2023-05-15T08:57:34.090Z,0.09
2023-05-15T08:59:33.883Z,0.09
2023-05-15T09:01:40.865Z,0.1
2023-05-15T09:03:35.327Z,0.1
2023-05-15T09:05:34.114Z,0.1
2023-05-15T09:07:33.525Z,91.83
2023-05-15T09:09:33.948Z,0.09
2023-05-15T09:11:33.834Z,0.09
2023-05-15T09:13:34.181Z,107.31
2023-05-15T09:15:33.461Z,0.1
2023-05-15T09:17:35.064Z,0.1
2023-05-15T09:19:34.461Z,0.1
2023-05-15T09:21:33.582Z,0.09
2023-05-15T09:23:34.009Z,0.09
2023-05-15T09:25:34.280Z,94.8
2023-05-15T09:27:33.423Z,0.1
2023-05-15T09:29:34.031Z,0.1
2023-05-15T09:31:33.573Z,94.8
2023-05-15T09:33:34.931Z,94.8
2023-05-15T09:35:33.525Z,94.8
2023-05-15T09:37:34.084Z,0.08
2023-05-15T09:39:33.672Z,86.09
2023-05-15T09:41:34.361Z,86.09
2023-05-15T09:43:33.835Z,0.09
2023-05-15T09:45:33.244Z,0.09
2023-05-15T09:47:35.454Z,0.09
2023-05-15T09:49:34.167Z,0.08
2023-05-15T09:51:34.103Z,86.09
2023-05-15T09:53:33.721Z,86.09
2023-05-15T09:55:37.379Z,0.08
2023-05-15T09:57:33.871Z,0.08
2023-05-15T09:59:34.193Z,0.08
2023-05-15T10:01:47.145Z,0.07
2023-05-15T10:03:33.972Z,0.07
2023-05-15T10:05:53.797Z,0.07
2023-05-15T10:07:33.630Z,0.1
2023-05-15T10:09:34.015Z,0.09
2023-05-15T10:11:34.231Z,0.09
2023-05-15T10:13:34.414Z,139.44
2023-05-15T10:15:33.776Z,147.38
2023-05-15T10:17:34.864Z,147.38
2023-05-15T10:19:44.024Z,0.14
2023-05-15T10:21:34.283Z,0.14
2023-05-15T10:23:33.552Z,0.14
2023-05-15T10:25:33.936Z,0.14
2023-05-15T10:27:33.632Z,0.13
2023-05-15T10:29:33.798Z,0.13
2023-05-15T10:31:34.314Z,0.14
2023-05-15T10:33:34.358Z,0.14
2023-05-15T10:35:33.673Z,0.14
2023-05-15T10:37:34.149Z,0.14
2023-05-15T10:39:33.504Z,147.38
2023-05-15T10:41:50.804Z,147.38
2023-05-15T10:43:34.513Z,139.44
2023-05-15T10:45:33.627Z,0.13
2023-05-15T10:47:34.998Z,0.13
2023-05-15T10:49:34.042Z,0.11
2023-05-15T10:51:34.204Z,0.11
2023-05-15T10:53:34.218Z,0.11
2023-05-15T10:55:33.722Z,0.1
2023-05-15T10:57:38.053Z,0.1
2023-05-15T10:59:33.540Z,0.1
2023-05-15T11:01:38.480Z,0.1
2023-05-15T11:03:44.899Z,0.1
2023-05-15T11:05:34.589Z,0.1
2023-05-15T11:07:34.644Z,83.31
2023-05-15T11:09:33.532Z,0.08
2023-05-15T11:11:36.325Z,0.08
2023-05-15T11:13:33.933Z,83.31
2023-05-15T11:15:34.492Z,77.93
2023-05-15T11:17:35.754Z,77.93
2023-05-15T11:19:35.139Z,0.07
2023-05-15T11:21:34.835Z,67.87
2023-05-15T11:23:33.923Z,67.87
2023-05-15T11:25:34.235Z,83.31
2023-05-15T11:27:33.869Z,0.08
2023-05-15T11:29:34.233Z,0.08
2023-05-15T11:31:34.912Z,77.93
2023-05-15T11:33:34.634Z,0.07
2023-05-15T11:35:34.220Z,0.07
2023-05-15T11:37:35.073Z,0.06
2023-05-15T11:39:34.158Z,65.5
2023-05-15T11:41:34.334Z,65.5
2023-05-15T11:43:33.287Z,0.06
2023-05-15T11:45:33.686Z,0.06
2023-05-15T11:47:34.796Z,0.06
2023-05-15T11:49:34.802Z,63.18
2023-05-15T11:51:34.304Z,0.06
2023-05-15T11:53:33.325Z,0.06
2023-05-15T11:55:33.634Z,65.5
2023-05-15T11:57:34.136Z,0.07
2023-05-15T11:59:34.044Z,0.07
2023-05-15T12:01:39.524Z,120.89
2023-05-15T12:03:34.142Z,0.11
2023-05-15T12:05:35.573Z,0.11
2023-05-15T12:07:33.730Z,0.14
2023-05-15T12:09:34.024Z,151.46
2023-05-15T12:11:34.465Z,151.46
2023-05-15T12:13:33.494Z,155.61
2023-05-15T12:15:33.959Z,151.46
2023-05-15T12:17:34.209Z,151.46
2023-05-15T12:19:34.839Z,0.13
2023-05-15T12:21:35.891Z,0.13
2023-05-15T12:23:33.157Z,0.13
2023-05-15T12:25:37.176Z,0.13
2023-05-15T12:27:33.872Z,124.46
2023-05-15T12:29:34.452Z,124.46
2023-05-15T12:31:34.562Z,120.89
2023-05-15T12:33:34.200Z,0.11
2023-05-15T12:35:34.109Z,0.11
2023-05-15T12:37:33.939Z,0.1
2023-05-15T12:39:33.478Z,0.1
2023-05-15T12:41:34.341Z,0.1
2023-05-15T12:43:33.110Z,0.11
2023-05-15T12:45:33.977Z,0.1
2023-05-15T12:47:33.810Z,0.1
2023-05-15T12:49:34.347Z,0.08
2023-05-15T12:51:33.892Z,0.08
2023-05-15T12:53:34.190Z,0.08
2023-05-15T12:55:34.008Z,0.06
2023-05-15T12:57:36.468Z,0.06
2023-05-15T12:59:34.518Z,0.06
2023-05-15T13:01:42.684Z,0.06
2023-05-15T13:03:34.944Z,0.06
2023-05-15T13:05:33.517Z,0.06
2023-05-15T13:07:47.113Z,0.07
2023-05-15T13:09:33.901Z,0.07
2023-05-15T13:11:34.505Z,0.07
2023-05-15T13:13:33.597Z,0.06
2023-05-15T13:15:34.184Z,67.87
2023-05-15T13:17:34.102Z,67.87
2023-05-15T13:19:34.789Z,63.18
2023-05-15T13:21:34.337Z,0.06
2023-05-15T13:23:36.112Z,0.06
2023-05-15T13:25:34.926Z,67.87
2023-05-15T13:27:33.295Z,0.06
2023-05-15T13:29:34.000Z,0.06
2023-05-15T13:31:34.509Z,0.06
2023-05-15T13:33:34.190Z,60.92
2023-05-15T13:35:33.605Z,60.92
2023-05-15T13:37:34.165Z,0.06
2023-05-15T13:39:33.552Z,65.5
2023-05-15T13:41:34.946Z,65.5
2023-05-15T13:43:37.291Z,0.06
2023-05-15T13:45:33.318Z,0.06
2023-05-15T13:47:34.650Z,0.06
2023-05-15T13:49:33.612Z,0.07
2023-05-15T13:51:34.760Z,0.07
2023-05-15T13:53:33.394Z,0.07
2023-05-15T13:55:39.573Z,63.18
2023-05-15T13:57:33.756Z,67.87
2023-05-15T13:59:34.243Z,67.87
2023-05-15T14:01:43.255Z,67.87
2023-05-15T14:03:38.535Z,67.87
2023-05-15T14:05:33.576Z,67.87
2023-05-15T14:07:34.028Z,0.06
2023-05-15T14:09:34.418Z,65.5
2023-05-15T14:11:34.533Z,65.5
2023-05-15T14:13:35.522Z,70.3
2023-05-15T14:15:34.289Z,0.07
2023-05-15T14:17:34.346Z,0.07
2023-05-15T14:19:34.272Z,0.06
2023-05-15T14:21:34.584Z,0.06
2023-05-15T14:23:34.024Z,0.06
2023-05-15T14:25:34.183Z,63.18
2023-05-15T14:27:33.968Z,0.06
2023-05-15T14:29:33.366Z,0.06
2023-05-15T14:31:34.309Z,63.18
2023-05-15T14:33:33.921Z,63.18
2023-05-15T14:35:33.931Z,63.18
2023-05-15T14:37:33.529Z,0.06
2023-05-15T14:39:35.213Z,58.71
2023-05-15T14:41:34.274Z,58.71
2023-05-15T14:43:34.036Z,65.5
2023-05-15T14:45:33.548Z,0.06
2023-05-15T14:47:34.874Z,0.06
2023-05-15T14:49:33.910Z,0.06
2023-05-15T14:51:35.022Z,54.46
2023-05-15T14:53:33.676Z,54.46
2023-05-15T14:55:53.625Z,0.06
2023-05-15T14:57:33.576Z,0.06
2023-05-15T14:59:34.086Z,0.06
2023-05-15T15:01:37.512Z,0.07
2023-05-15T15:03:34.519Z,0.07
2023-05-15T15:05:34.456Z,0.07
2023-05-15T15:07:33.898Z,0.06
2023-05-15T15:09:34.705Z,70.3
2023-05-15T15:11:34.281Z,70.3
2023-05-15T15:13:33.561Z,72.78
2023-05-15T15:15:33.972Z,72.78
2023-05-15T15:17:34.121Z,72.78
2023-05-15T15:19:34.540Z,0.08
2023-05-15T15:21:33.656Z,0.08
2023-05-15T15:23:33.842Z,0.08
2023-05-15T15:25:35.680Z,91.83
2023-05-15T15:27:34.108Z,94.8
2023-05-15T15:29:33.713Z,94.8
2023-05-15T15:31:34.859Z,88.93
2023-05-15T15:33:34.123Z,0.09
2023-05-15T15:35:37.167Z,0.09
2023-05-15T15:37:33.941Z,0.09
2023-05-15T15:39:34.241Z,0.1
2023-05-15T15:41:34.840Z,0.1
2023-05-15T15:43:36.508Z,0.08
2023-05-15T15:45:34.148Z,0.08
2023-05-15T15:47:34.051Z,0.08
2023-05-15T15:49:34.320Z,0.08
2023-05-15T15:51:34.376Z,0.08
2023-05-15T15:53:33.637Z,0.08
2023-05-15T15:55:34.211Z,86.09
2023-05-15T15:57:33.843Z,0.08
2023-05-15T15:59:34.176Z,0.08
2023-05-15T16:01:39.615Z,77.93
2023-05-15T16:03:34.805Z,75.32
2023-05-15T16:05:34.345Z,75.32
2023-05-15T16:07:33.640Z,0.06
2023-05-15T16:09:34.270Z,0.06
2023-05-15T16:11:44.907Z,0.06
2023-05-15T16:13:34.556Z,0.06
2023-05-15T16:15:48.179Z,0.06
2023-05-15T16:17:33.781Z,0.06
2023-05-15T16:19:35.675Z,58.71
2023-05-15T16:21:34.442Z,0.05
2023-05-15T16:23:33.985Z,0.05
2023-05-15T16:25:33.866Z,0.05
2023-05-15T16:27:34.175Z,0.06
2023-05-15T16:29:33.753Z,0.06
2023-05-15T16:31:50.228Z,0.06
2023-05-15T16:33:34.194Z,0.06
2023-05-15T16:35:35.672Z,0.06
2023-05-15T16:37:34.158Z,54.46
2023-05-15T16:39:33.805Z,56.56
2023-05-15T16:41:34.867Z,56.56
2023-05-15T16:43:33.956Z,56.56
2023-05-15T16:45:33.213Z,54.46
2023-05-15T16:47:34.699Z,54.46
2023-05-15T16:49:33.935Z,0.05
2023-05-15T16:51:34.426Z,0.05
2023-05-15T16:53:33.682Z,0.05
2023-05-15T16:55:33.967Z,0.05
2023-05-15T16:57:33.621Z,0.04
2023-05-15T16:59:34.392Z,0.04
2023-05-15T17:01:40.451Z,0.06
2023-05-15T17:03:35.202Z,0.06
2023-05-15T17:05:33.524Z,0.06
2023-05-15T17:07:33.976Z,67.87
2023-05-15T17:09:35.711Z,0.06
2023-05-15T17:11:34.821Z,0.06
2023-05-15T17:13:33.825Z,0.07
2023-05-15T17:15:34.939Z,0.07
2023-05-15T17:17:33.987Z,0.07
2023-05-15T17:19:33.886Z,0.07
2023-05-15T17:21:36.083Z,0.07
2023-05-15T17:23:34.711Z,0.07
2023-05-15T17:25:49.498Z,0.08
2023-05-15T17:27:33.237Z,0.08
2023-05-15T17:29:36.590Z,0.08
2023-05-15T17:31:34.754Z,0.08
2023-05-15T17:33:35.231Z,0.08
2023-05-15T17:35:33.629Z,0.08
2023-05-15T17:37:34.142Z,0.08
2023-05-15T17:39:33.943Z,86.09
2023-05-15T17:41:33.626Z,86.09
2023-05-15T17:43:33.978Z,104.09
2023-05-15T17:45:33.653Z,107.31
2023-05-15T17:47:34.430Z,107.31
2023-05-15T17:49:33.610Z,113.97
2023-05-15T17:51:35.207Z,110.61
2023-05-15T17:53:33.754Z,110.61
2023-05-15T17:55:34.113Z,104.09
2023-05-15T17:57:33.762Z,104.09
2023-05-15T17:59:33.286Z,104.09
2023-05-15T18:01:37.035Z,0.1
2023-05-15T18:03:34.394Z,0.11
2023-05-15T18:05:34.634Z,0.11
2023-05-15T18:07:33.791Z,0.11
2023-05-15T18:09:36.251Z,117.4
2023-05-15T18:11:45.096Z,117.4
2023-05-15T18:13:34.194Z,0.1
2023-05-15T18:15:37.111Z,0.1
2023-05-15T18:17:33.763Z,0.1
2023-05-15T18:19:34.977Z,117.4
2023-05-15T18:21:35.589Z,0.11
2023-05-15T18:23:34.325Z,0.11
2023-05-15T18:25:33.891Z,0.1
2023-05-15T18:27:34.188Z,0.11
2023-05-15T18:29:33.739Z,0.11
2023-05-15T18:31:34.659Z,0.1
2023-05-15T18:33:34.494Z,110.61
2023-05-15T18:35:33.732Z,110.61
2023-05-15T18:37:35.936Z,104.09
2023-05-15T18:39:33.458Z,107.31
2023-05-15T18:41:34.405Z,107.31
2023-05-15T18:43:33.918Z,113.97
2023-05-15T18:45:33.962Z,113.97
2023-05-15T18:47:34.416Z,113.97
2023-05-15T18:49:33.587Z,0.11
2023-05-15T18:51:34.259Z,120.89
2023-05-15T18:53:33.657Z,120.89
2023-05-15T18:55:34.039Z,0.11
2023-05-15T18:57:33.561Z,120.89
2023-05-15T18:59:34.197Z,120.89
2023-05-15T19:01:57.773Z,113.97
2023-05-15T19:03:36.095Z,113.97
2023-05-15T19:05:34.271Z,113.97
2023-05-15T19:07:33.526Z,128.1
2023-05-15T19:09:33.886Z,0.11
2023-05-15T19:11:36.225Z,0.11
2023-05-15T19:13:33.512Z,120.89
2023-05-15T19:15:33.957Z,117.4
2023-05-15T19:17:34.282Z,117.4
2023-05-15T19:19:34.810Z,0.12
2023-05-15T19:21:34.150Z,0.13
2023-05-15T19:23:34.043Z,0.13
2023-05-15T19:25:33.840Z,0.14
2023-05-15T19:27:33.328Z,0.14
2023-05-15T19:29:34.045Z,0.14
2023-05-15T19:31:51.016Z,0.14
2023-05-15T19:33:34.250Z,0.14
2023-05-15T19:35:35.984Z,0.14
2023-05-15T19:37:34.123Z,143.37
2023-05-15T19:39:33.963Z,0.14
2023-05-15T19:41:36.162Z,0.14
2023-05-15T19:43:34.013Z,155.61
2023-05-15T19:45:33.878Z,159.84
2023-05-15T19:47:33.914Z,159.84
2023-05-15T19:49:34.213Z,0.14
2023-05-15T19:51:34.154Z,155.61
2023-05-15T19:53:34.202Z,155.61
2023-05-15T19:55:34.110Z,0.15
2023-05-15T19:57:33.529Z,0.15
2023-05-15T19:59:33.970Z,0.15
2023-05-15T20:01:37.916Z,0.17
2023-05-15T20:03:35.500Z,0.16
2023-05-15T20:05:33.826Z,0.16
2023-05-15T20:07:33.872Z,0.17
2023-05-15T20:09:34.119Z,177.56
2023-05-15T20:11:34.302Z,177.56
2023-05-15T20:13:36.268Z,164.15
2023-05-15T20:15:50.099Z,0.16
2023-05-15T20:17:33.988Z,0.16
2023-05-15T20:19:34.546Z,0.15
2023-05-15T20:21:34.146Z,155.61
2023-05-15T20:23:34.201Z,155.61
2023-05-15T20:25:35.893Z,0.16
2023-05-15T20:27:33.569Z,173.01
2023-05-15T20:29:33.954Z,173.01
2023-05-15T20:31:34.350Z,0.16
2023-05-15T20:33:35.387Z,0.16
2023-05-15T20:35:33.640Z,0.16
2023-05-15T20:37:34.147Z,159.84
2023-05-15T20:39:33.690Z,0.16
2023-05-15T20:41:34.931Z,0.16
2023-05-15T20:43:34.045Z,0.17
2023-05-15T20:45:33.419Z,0.17
2023-05-15T20:47:37.844Z,0.17
2023-05-15T20:49:33.351Z,0.17
2023-05-15T20:51:34.553Z,0.17
2023-05-15T20:53:33.598Z,0.17
2023-05-15T20:55:34.256Z,0.17
2023-05-15T20:57:33.923Z,0.17
2023-05-15T20:59:34.480Z,0.17
2023-05-15T21:01:39.230Z,0.17
2023-05-15T21:03:34.402Z,0.17
2023-05-15T21:05:33.744Z,0.17
2023-05-15T21:07:33.567Z,0.17
2023-05-15T21:09:34.099Z,0.17
2023-05-15T21:11:34.153Z,0.17
2023-05-15T21:13:34.007Z,0.17
2023-05-15T21:15:34.160Z,0.17
2023-05-15T21:17:34.139Z,0.17
2023-05-15T21:19:34.414Z,0.17
2023-05-15T21:21:33.926Z,0.17
2023-05-15T21:23:34.075Z,0.17
2023-05-15T21:25:33.780Z,0.17
2023-05-15T21:27:34.035Z,0.17
2023-05-15T21:29:33.619Z,0.17
2023-05-15T21:31:35.249Z,0.17
2023-05-15T21:33:34.269Z,0.17
2023-05-15T21:35:34.250Z,0.17
2023-05-15T21:37:33.749Z,0.17
2023-05-15T21:39:33.632Z,0.17
2023-05-15T21:41:34.783Z,0.17
2023-05-15T21:43:33.914Z,0.17
2023-05-15T21:45:34.049Z,0.17
2023-05-15T21:47:34.339Z,0.17
2023-05-15T21:49:33.629Z,0.17
2023-05-15T21:51:34.490Z,5059.99
2023-05-15T21:53:33.476Z,5059.99
2023-05-15T21:55:33.956Z,5059.99
2023-05-15T21:57:33.451Z,2218.89
2023-05-15T21:59:34.060Z,2218.89
2023-05-15T22:01:34.624Z,2218.89
2023-05-15T22:03:34.776Z,1099.86
2023-05-15T22:05:34.276Z,1099.86
2023-05-15T22:07:33.548Z,1099.86
2023-05-15T22:09:34.233Z,1099.86
2023-05-15T22:11:34.450Z,1099.86
2023-05-15T22:13:34.193Z,1099.86
2023-05-15T22:15:45.176Z,1099.86
2023-05-15T22:17:33.860Z,1099.86
2023-05-15T22:19:51.924Z,1099.86
2023-05-15T22:21:33.906Z,1099.86
2023-05-15T22:23:33.305Z,1099.86
2023-05-15T22:25:33.805Z,1099.86
2023-05-15T22:27:33.447Z,1099.86
2023-05-15T22:29:33.930Z,1099.86
2023-05-15T22:31:33.839Z,1099.86
2023-05-15T22:33:34.374Z,1099.86
2023-05-15T22:35:33.595Z,1099.86
2023-05-15T22:37:34.078Z,1099.86
2023-05-15T22:39:33.754Z,1099.86
2023-05-15T22:41:34.867Z,1099.86
2023-05-15T22:43:34.050Z,1099.86
2023-05-15T22:45:33.693Z,1099.86
2023-05-15T22:47:34.315Z,1099.86
2023-05-15T22:49:33.822Z,1099.86
2023-05-15T22:51:34.459Z,1099.86
2023-05-15T22:53:34.655Z,1099.86
2023-05-15T22:55:33.580Z,1099.86
2023-05-15T22:57:34.503Z,1099.86
2023-05-15T22:59:33.676Z,1099.86
2023-05-15T23:01:37.631Z,1099.86
2023-05-15T23:03:34.357Z,1099.86
2023-05-15T23:05:33.989Z,1099.86
2023-05-15T23:07:34.166Z,1099.86
2023-05-15T23:09:33.884Z,7.07
2023-05-15T23:11:34.910Z,7.07
2023-05-15T23:13:34.215Z,7.07
2023-05-15T23:15:33.697Z,2.42
2023-05-15T23:17:38.196Z,2.42
2023-05-15T23:19:34.654Z,2.42
2023-05-15T23:21:35.309Z,2.42
2023-05-15T23:23:34.381Z,2.42
2023-05-15T23:25:33.972Z,2.42
2023-05-15T23:27:34.341Z,2.42
2023-05-15T23:29:33.675Z,2.42
2023-05-15T23:31:35.244Z,2.42
2023-05-15T23:33:34.169Z,2.42
2023-05-15T23:35:33.307Z,2.42
2023-05-15T23:37:33.811Z,2.42
2023-05-15T23:39:33.591Z,2.42
2023-05-15T23:41:34.498Z,2.42
2023-05-15T23:43:33.444Z,2.42
2023-05-15T23:45:34.238Z,2.42
2023-05-15T23:47:34.548Z,2.42
2023-05-15T23:49:33.472Z,2.42
2023-05-15T23:51:34.223Z,2.42
2023-05-15T23:53:33.534Z,2.42
2023-05-15T23:55:34.165Z,2.42
2023-05-15T23:57:33.583Z,2.42
2023-05-15T23:59:33.423Z,2.42
